Asiatic King — 9V3931 — position and weather

sailwx.info

Track history (hours):
 
Tides and Currents Weather Stations Pressure Air Temp Water Temp Dewpoint Dewpoint Depression Visibility Wind Speed Wind Dir Waves Ship Positions

Asiatic King

Last reported at 2017-Oct-17 03:57 UTC. Time now 2017-Oct-17 04:20 UTC.
Position N 45°33' E 013°44'.

Length 148 m; draft 7.5 m.

Type: Ship. MMSI: 565584000.

Date/timePositionNaut miles runAvg speedWind from/ knotsBaromVisibWave heightAir tempDewpointWater temp
2017-Oct-17 03:57N 45°33' E 013°44'0 0.1
2017-Oct-17 03:31N 45°33' E 013°44'2 3.6
2017-Oct-17 03:00N 45°34' E 013°42'5 9.5
2017-Oct-17 02:31N 45°34' E 013°35'611.7
2017-Oct-17 02:00N 45°32' E 013°27'714.0
2017-Oct-17 01:31N 45°29' E 013°19'713.7
2017-Oct-17 01:00N 45°24' E 013°12'714.7
2017-Oct-17 00:30N 45°16' E 013°14'714.5
2017-Oct-17 00:01N 45°10' E 013°17'714.3
2017-Oct-16 23:30N 45°03' E 013°20'714.3
2017-Oct-16 23:01N 44°56' E 013°25'714.3
2017-Oct-16 22:30N 44°50' E 013°29'714.4
2017-Oct-16 22:00N 44°44' E 013°34'714.5
2017-Oct-16 21:31N 44°38' E 013°40'814.7
2017-Oct-16 20:59N 44°31' E 013°46'815.6
2017-Oct-16 20:28N 44°25' E 013°52'815.5
2017-Oct-16 19:58N 44°18' E 013°58'915.6
2017-Oct-16 19:25N 44°11' E 014°05'715.5
2017-Oct-16 18:57N 44°05' E 014°10'715.7
2017-Oct-16 18:30N 43°59' E 014°16'915.9
2017-Oct-16 17:58N 43°52' E 014°23'716.1
2017-Oct-16 17:31N 43°47' E 014°30'815.6
2017-Oct-16 17:00N 43°41' E 014°36'815.7
2017-Oct-16 16:30N 43°35' E 014°44'915.6
2017-Oct-16 15:57N 43°28' E 014°52'15615.4
2017-Oct-16 05:49N 41°31' E 017°12'715.8
2017-Oct-16 05:23N 41°26' E 017°18'815.8
2017-Oct-16 04:53N 41°20' E 017°25'1115.5
2017-Oct-16 04:12N 41°12' E 017°34'315.6
2017-Oct-16 04:00N 41°10' E 017°37'1415.5
2017-Oct-16 03:07N 40°59' E 017°48'515.8
2017-Oct-16 02:47N 40°55' E 017°53'414.8
2017-Oct-16 02:30N 40°52' E 017°57'715.1
2017-Oct-16 02:00N 40°47' E 018°03'714.9
2017-Oct-16 01:30N 40°41' E 018°10'815.3
2017-Oct-16 01:01N 40°36' E 018°17'815.2
2017-Oct-16 00:31N 40°30' E 018°22'815.1
2017-Oct-16 00:00N 40°23' E 018°29'714.6
2017-Oct-15 23:31N 40°17' E 018°34'815.4
2017-Oct-15 23:00N 40°10' E 018°38'815.2
2017-Oct-15 22:30N 40°04' E 018°42'815.2
2017-Oct-15 22:01N 39°57' E 018°47'815.2
2017-Oct-15 21:30N 39°50' E 018°52'815.2
2017-Oct-15 21:00N 39°44' E 018°57'815.3
2017-Oct-15 20:30N 39°37' E 019°02'815.4
2017-Oct-15 19:59N 39°30' E 019°08'4015.6
2017-Oct-15 17:26N 38°56' E 019°34'  
2017-Oct-12 05:12N 31°51' E 034°37'0 0.0
2017-Oct-12 04:51N 31°51' E 034°37'0 0.0
2017-Oct-12 01:13N 31°51' E 034°37'0 0.0
2017-Oct-12 00:58N 31°51' E 034°37'0 0.0
2017-Oct-12 00:25N 31°51' E 034°37'0 0.0
2017-Oct-11 17:51N 31°51' E 034°37'  
Track history (hours):
 
Tides and Currents Weather Stations Pressure Air Temp Water Temp Dewpoint Dewpoint Depression Visibility Wind Speed Wind Dir Waves Ship Positions

Asiatic King

Last reported at 2017-Oct-17 03:57 UTC. Time now 2017-Oct-17 04:20 UTC.
Position N 45°33' E 013°44'.

Length 148 m; draft 7.5 m.

Type: Ship. MMSI: 565584000.

Date/timePositionNaut miles runAvg speedWind from/ knotsBaromVisibWave heightAir tempDewpointWater temp
2017-Oct-17 03:57N 45°33' E 013°44'0 0.1
2017-Oct-17 03:31N 45°33' E 013°44'2 3.6
2017-Oct-17 03:00N 45°34' E 013°42'5 9.5
2017-Oct-17 02:31N 45°34' E 013°35'611.7
2017-Oct-17 02:00N 45°32' E 013°27'714.0
2017-Oct-17 01:31N 45°29' E 013°19'713.7
2017-Oct-17 01:00N 45°24' E 013°12'714.7
2017-Oct-17 00:30N 45°16' E 013°14'714.5
2017-Oct-17 00:01N 45°10' E 013°17'714.3
2017-Oct-16 23:30N 45°03' E 013°20'714.3
2017-Oct-16 23:01N 44°56' E 013°25'714.3
2017-Oct-16 22:30N 44°50' E 013°29'714.4
2017-Oct-16 22:00N 44°44' E 013°34'714.5
2017-Oct-16 21:31N 44°38' E 013°40'814.7
2017-Oct-16 20:59N 44°31' E 013°46'815.6
2017-Oct-16 20:28N 44°25' E 013°52'815.5
2017-Oct-16 19:58N 44°18' E 013°58'915.6
2017-Oct-16 19:25N 44°11' E 014°05'715.5
2017-Oct-16 18:57N 44°05' E 014°10'715.7
2017-Oct-16 18:30N 43°59' E 014°16'915.9
2017-Oct-16 17:58N 43°52' E 014°23'716.1
2017-Oct-16 17:31N 43°47' E 014°30'815.6
2017-Oct-16 17:00N 43°41' E 014°36'815.7
2017-Oct-16 16:30N 43°35' E 014°44'915.6
2017-Oct-16 15:57N 43°28' E 014°52'15615.4
2017-Oct-16 05:49N 41°31' E 017°12'715.8
2017-Oct-16 05:23N 41°26' E 017°18'815.8
2017-Oct-16 04:53N 41°20' E 017°25'1115.5
2017-Oct-16 04:12N 41°12' E 017°34'315.6
2017-Oct-16 04:00N 41°10' E 017°37'1415.5
2017-Oct-16 03:07N 40°59' E 017°48'515.8
2017-Oct-16 02:47N 40°55' E 017°53'414.8
2017-Oct-16 02:30N 40°52' E 017°57'715.1
2017-Oct-16 02:00N 40°47' E 018°03'714.9
2017-Oct-16 01:30N 40°41' E 018°10'815.3
2017-Oct-16 01:01N 40°36' E 018°17'815.2
2017-Oct-16 00:31N 40°30' E 018°22'815.1
2017-Oct-16 00:00N 40°23' E 018°29'714.6
2017-Oct-15 23:31N 40°17' E 018°34'815.4
2017-Oct-15 23:00N 40°10' E 018°38'815.2
2017-Oct-15 22:30N 40°04' E 018°42'815.2
2017-Oct-15 22:01N 39°57' E 018°47'815.2
2017-Oct-15 21:30N 39°50' E 018°52'815.2
2017-Oct-15 21:00N 39°44' E 018°57'815.3
2017-Oct-15 20:30N 39°37' E 019°02'815.4
2017-Oct-15 19:59N 39°30' E 019°08'4015.6
2017-Oct-15 17:26N 38°56' E 019°34'  
2017-Oct-12 05:12N 31°51' E 034°37'0 0.0
2017-Oct-12 04:51N 31°51' E 034°37'0 0.0
2017-Oct-12 01:13N 31°51' E 034°37'0 0.0
2017-Oct-12 00:58N 31°51' E 034°37'0 0.0
2017-Oct-12 00:25N 31°51' E 034°37'0 0.0
2017-Oct-11 17:51N 31°51' E 034°37'  

Dump ship's entire track history